sensor_id;sensor_type;location;lat;lon;timestamp;pressure;altitude;pressure_sealevel;temperature;humidity
83551;BME280;74617;47.082;15.524;2024-03-02T00:00:37;95932.56;;;19.64;48.51
83551;BME280;74617;47.082;15.524;2024-03-02T00:03:03;95930.19;;;19.63;48.79
83551;BME280;74617;47.082;15.524;2024-03-02T00:05:29;95929.38;;;19.62;48.55
83551;BME280;74617;47.082;15.524;2024-03-02T00:07:56;95939.16;;;19.63;48.34
83551;BME280;74617;47.082;15.524;2024-03-02T00:10:26;95940.28;;;19.62;48.45
83551;BME280;74617;47.082;15.524;2024-03-02T00:12:56;95934.81;;;19.62;48.54
83551;BME280;74617;47.082;15.524;2024-03-02T00:15:47;95935.97;;;19.61;48.54
83551;BME280;74617;47.082;15.524;2024-03-02T00:18:18;95933.25;;;19.61;48.56
83551;BME280;74617;47.082;15.524;2024-03-02T00:20:44;95934.41;;;19.60;48.40
83551;BME280;74617;47.082;15.524;2024-03-02T00:23:16;95933.25;;;19.61;48.36
83551;BME280;74617;47.082;15.524;2024-03-02T00:25:47;95927.00;;;19.61;48.63
83551;BME280;74617;47.082;15.524;2024-03-02T00:28:14;95924.66;;;19.59;48.60
83551;BME280;74617;47.082;15.524;2024-03-02T00:33:10;95934.41;;;19.60;48.64
83551;BME280;74617;47.082;15.524;2024-03-02T00:35:35;95930.09;;;19.59;48.56
83551;BME280;74617;47.082;15.524;2024-03-02T00:38:05;95931.25;;;19.58;48.37
83551;BME280;74617;47.082;15.524;2024-03-02T00:40:31;95935.53;;;19.59;48.81
83551;BME280;74617;47.082;15.524;2024-03-02T00:42:57;95932.38;;;19.57;48.50
83551;BME280;74617;47.082;15.524;2024-03-02T00:45:22;95928.50;;;19.58;48.85
83551;BME280;74617;47.082;15.524;2024-03-02T00:47:50;95937.84;;;19.57;48.63
83551;BME280;74617;47.082;15.524;2024-03-02T00:50:15;95943.28;;;19.57;48.29
83551;BME280;74617;47.082;15.524;2024-03-02T00:52:41;95937.84;;;19.57;48.58
83551;BME280;74617;47.082;15.524;2024-03-02T00:55:07;95930.78;;;19.56;48.40
83551;BME280;74617;47.082;15.524;2024-03-02T00:57:33;95930.78;;;19.56;48.60
83551;BME280;74617;47.082;15.524;2024-03-02T01:00:00;95928.38;;;19.55;48.64
83551;BME280;74617;47.082;15.524;2024-03-02T01:02:25;95925.34;;;19.56;48.74
83551;BME280;74617;47.082;15.524;2024-03-02T01:04:50;95928.38;;;19.55;48.44
83551;BME280;74617;47.082;15.524;2024-03-02T01:07:16;95933.84;;;19.55;48.72
83551;BME280;74617;47.082;15.524;2024-03-02T01:09:41;95932.25;;;19.54;48.46
83551;BME280;74617;47.082;15.524;2024-03-02T01:12:07;95930.31;;;19.54;48.53
83551;BME280;74617;47.082;15.524;2024-03-02T01:14:32;95927.59;;;19.54;48.65
83551;BME280;74617;47.082;15.524;2024-03-02T01:16:57;95924.88;;;19.54;48.62
83551;BME280;74617;47.082;15.524;2024-03-02T01:19:23;95920.56;;;19.53;48.52
83551;BME280;74617;47.082;15.524;2024-03-02T01:21:48;95923.28;;;19.53;48.46
83551;BME280;74617;47.082;15.524;2024-03-02T01:24:16;95923.28;;;19.53;48.35
83551;BME280;74617;47.082;15.524;2024-03-02T01:26:42;95917.06;;;19.53;48.52
83551;BME280;74617;47.082;15.524;2024-03-02T01:29:07;95924.44;;;19.52;48.44
83551;BME280;74617;47.082;15.524;2024-03-02T01:31:33;95929.88;;;19.52;48.74
83551;BME280;74617;47.082;15.524;2024-03-02T01:33:58;95926.38;;;19.52;48.70
83551;BME280;74617;47.082;15.524;2024-03-02T01:36:23;95926.38;;;19.52;48.50
83551;BME280;74617;47.082;15.524;2024-03-02T01:38:49;95923.66;;;19.52;48.38
83551;BME280;74617;47.082;15.524;2024-03-02T01:41:15;95922.88;;;19.51;48.45
83551;BME280;74617;47.082;15.524;2024-03-02T01:43:40;95912.75;;;19.52;48.86
83551;BME280;74617;47.082;15.524;2024-03-02T01:46:06;95912.75;;;19.52;48.55
83551;BME280;74617;47.082;15.524;2024-03-02T01:48:31;95918.22;;;19.52;48.84
83551;BME280;74617;47.082;15.524;2024-03-02T01:50:57;95922.88;;;19.51;48.71
83551;BME280;74617;47.082;15.524;2024-03-02T01:53:22;95923.66;;;19.52;48.77
83551;BME280;74617;47.082;15.524;2024-03-02T01:55:48;95919.00;;;19.52;48.53
83551;BME280;74617;47.082;15.524;2024-03-02T01:58:14;95917.41;;;19.51;48.65
83551;BME280;74617;47.082;15.524;2024-03-02T02:00:39;95917.41;;;19.51;48.75
83551;BME280;74617;47.082;15.524;2024-03-02T02:03:05;95912.75;;;19.52;48.70
83551;BME280;74617;47.082;15.524;2024-03-02T02:05:32;95922.88;;;19.51;48.79
83551;BME280;74617;47.082;15.524;2024-03-02T02:07:57;95918.56;;;19.50;48.80
83551;BME280;74617;47.082;15.524;2024-03-02T02:10:23;95916.63;;;19.51;48.60
83551;BME280;74617;47.082;15.524;2024-03-02T02:12:49;95919.34;;;19.51;48.63
83551;BME280;74617;47.082;15.524;2024-03-02T02:15:30;95913.44;;;19.49;48.67
83551;BME280;74617;47.082;15.524;2024-03-02T02:17:57;95906.09;;;19.49;48.90
83551;BME280;74617;47.082;15.524;2024-03-02T02:20:23;95909.59;;;19.50;48.63
83551;BME280;74617;47.082;15.524;2024-03-02T02:22:56;95904.16;;;19.50;48.94
83551;BME280;74617;47.082;15.524;2024-03-02T02:25:21;95903.38;;;19.49;48.69
83551;BME280;74617;47.082;15.524;2024-03-02T02:27:46;95897.91;;;19.49;48.94
83551;BME280;74617;47.082;15.524;2024-03-02T02:30:12;95899.03;;;19.48;48.61
83551;BME280;74617;47.082;15.524;2024-03-02T02:32:37;95888.94;;;19.49;48.89
83551;BME280;74617;47.082;15.524;2024-03-02T02:35:03;95888.94;;;19.49;48.96
83551;BME280;74617;47.082;15.524;2024-03-02T02:37:28;95891.66;;;19.49;48.57
83551;BME280;74617;47.082;15.524;2024-03-02T02:39:54;95890.84;;;19.48;48.33
83551;BME280;74617;47.082;15.524;2024-03-02T02:42:19;95885.41;;;19.48;48.83
83551;BME280;74617;47.082;15.524;2024-03-02T02:44:44;95890.06;;;19.48;48.68
83551;BME280;74617;47.082;15.524;2024-03-02T02:47:10;95886.56;;;19.47;48.70
83551;BME280;74617;47.082;15.524;2024-03-02T02:49:35;95888.13;;;19.48;48.85
83551;BME280;74617;47.082;15.524;2024-03-02T02:52:00;95889.28;;;19.47;48.66
83551;BME280;74617;47.082;15.524;2024-03-02T02:54:26;95889.28;;;19.47;49.14
83551;BME280;74617;47.082;15.524;2024-03-02T02:56:51;95889.28;;;19.47;48.89
83551;BME280;74617;47.082;15.524;2024-03-02T02:59:16;95887.72;;;19.46;48.85
83551;BME280;74617;47.082;15.524;2024-03-02T03:01:42;95884.97;;;19.46;48.87
83551;BME280;74617;47.082;15.524;2024-03-02T03:04:07;95886.91;;;19.46;48.78
83551;BME280;74617;47.082;15.524;2024-03-02T03:06:32;95882.25;;;19.46;48.78
83551;BME280;74617;47.082;15.524;2024-03-02T03:08:58;95884.19;;;19.46;48.75
83551;BME280;74617;47.082;15.524;2024-03-02T03:11:23;95875.22;;;19.45;48.84
83551;BME280;74617;47.082;15.524;2024-03-02T03:13:50;95875.22;;;19.45;48.91
83551;BME280;74617;47.082;15.524;2024-03-02T03:16:15;95871.72;;;19.45;49.03
83551;BME280;74617;47.082;15.524;2024-03-02T03:18:41;95880.69;;;19.45;48.78
83551;BME280;74617;47.082;15.524;2024-03-02T03:21:06;95883.41;;;19.45;48.62
83551;BME280;74617;47.082;15.524;2024-03-02T03:23:32;95877.16;;;19.45;48.86
83551;BME280;74617;47.082;15.524;2024-03-02T03:25:57;95883.75;;;19.44;48.89
83551;BME280;74617;47.082;15.524;2024-03-02T03:28:22;95884.56;;;19.44;48.73
83551;BME280;74617;47.082;15.524;2024-03-02T03:30:48;95886.50;;;19.44;48.63
83551;BME280;74617;47.082;15.524;2024-03-02T03:33:13;95885.69;;;19.43;48.92
83551;BME280;74617;47.082;15.524;2024-03-02T03:35:39;95882.19;;;19.43;48.87
83551;BME280;74617;47.082;15.524;2024-03-02T03:38:04;95888.44;;;19.43;49.08
83551;BME280;74617;47.082;15.524;2024-03-02T03:40:30;95885.69;;;19.43;48.99
83551;BME280;74617;47.082;15.524;2024-03-02T03:42:55;95888.44;;;19.43;48.70
83551;BME280;74617;47.082;15.524;2024-03-02T03:45:21;95882.97;;;19.43;48.66
83551;BME280;74617;47.082;15.524;2024-03-02T03:47:47;95880.25;;;19.43;48.57
83551;BME280;74617;47.082;15.524;2024-03-02T03:50:12;95882.97;;;19.43;48.78
83551;BME280;74617;47.082;15.524;2024-03-02T03:52:38;95872.09;;;19.43;48.86
83551;BME280;74617;47.082;15.524;2024-03-02T03:55:03;95874.81;;;19.43;48.96
83551;BME280;74617;47.082;15.524;2024-03-02T03:57:30;95872.09;;;19.43;48.94
83551;BME280;74617;47.082;15.524;2024-03-02T03:59:55;95867.75;;;19.42;48.97
83551;BME280;74617;47.082;15.524;2024-03-02T04:02:21;95867.75;;;19.42;48.78
83551;BME280;74617;47.082;15.524;2024-03-02T04:04:46;95866.97;;;19.41;48.76
83551;BME280;74617;47.082;15.524;2024-03-02T04:07:12;95864.25;;;19.41;49.04
83551;BME280;74617;47.082;15.524;2024-03-02T04:09:37;95867.75;;;19.42;48.76
83551;BME280;74617;47.082;15.524;2024-03-02T04:12:03;95875.13;;;19.41;48.68
83551;BME280;74617;47.082;15.524;2024-03-02T04:14:28;95877.06;;;19.41;48.90
83551;BME280;74617;47.082;15.524;2024-03-02T04:16:54;95867.31;;;19.40;49.07
83551;BME280;74617;47.082;15.524;2024-03-02T04:19:19;95868.09;;;19.40;48.79
83551;BME280;74617;47.082;15.524;2024-03-02T04:21:44;95870.03;;;19.40;48.85
83551;BME280;74617;47.082;15.524;2024-03-02T04:24:10;95878.22;;;19.40;48.98
83551;BME280;74617;47.082;15.524;2024-03-02T04:26:35;95871.97;;;19.39;48.86
83551;BME280;74617;47.082;15.524;2024-03-02T04:29:01;95883.66;;;19.40;49.02
83551;BME280;74617;47.082;15.524;2024-03-02T04:31:27;95885.59;;;19.39;49.22
83551;BME280;74617;47.082;15.524;2024-03-02T04:33:52;95888.31;;;19.39;48.78
83551;BME280;74617;47.082;15.524;2024-03-02T04:36:17;95895.72;;;19.39;48.75
83551;BME280;74617;47.082;15.524;2024-03-02T04:38:43;95892.97;;;19.39;48.63
83551;BME280;74617;47.082;15.524;2024-03-02T04:41:08;95891.84;;;19.40;48.87
83551;BME280;74617;47.082;15.524;2024-03-02T04:43:34;95889.47;;;19.38;48.87
83551;BME280;74617;47.082;15.524;2024-03-02T04:46:00;95900.38;;;19.38;48.82
83551;BME280;74617;47.082;15.524;2024-03-02T04:48:26;95897.66;;;19.38;48.98
83551;BME280;74617;47.082;15.524;2024-03-02T04:50:52;95892.19;;;19.38;48.73
83551;BME280;74617;47.082;15.524;2024-03-02T04:53:17;95891.41;;;19.38;49.05
83551;BME280;74617;47.082;15.524;2024-03-02T04:55:43;95896.84;;;19.38;48.80
83551;BME280;74617;47.082;15.524;2024-03-02T04:58:08;95905.03;;;19.38;48.98
83551;BME280;74617;47.082;15.524;2024-03-02T05:00:34;95903.44;;;19.37;48.94
83551;BME280;74617;47.082;15.524;2024-03-02T05:03:00;95913.19;;;19.38;48.73
83551;BME280;74617;47.082;15.524;2024-03-02T05:05:25;95915.13;;;19.37;48.82
83551;BME280;74617;47.082;15.524;2024-03-02T05:07:51;95917.06;;;19.37;49.04
83551;BME280;74617;47.082;15.524;2024-03-02T05:10:17;95914.34;;;19.37;48.95
83551;BME280;74617;47.082;15.524;2024-03-02T05:12:42;95915.94;;;19.38;48.97
83551;BME280;74617;47.082;15.524;2024-03-02T05:15:11;95919.78;;;19.37;48.87
83551;BME280;74617;47.082;15.524;2024-03-02T05:17:37;95920.59;;;19.37;48.85
83551;BME280;74617;47.082;15.524;2024-03-02T05:20:04;95917.06;;;19.37;48.90
83551;BME280;74617;47.082;15.524;2024-03-02T05:22:30;95911.63;;;19.37;48.93
83551;BME280;74617;47.082;15.524;2024-03-02T05:24:55;95916.28;;;19.36;48.94
83551;BME280;74617;47.082;15.524;2024-03-02T05:27:21;95920.94;;;19.36;48.88
83551;BME280;74617;47.082;15.524;2024-03-02T05:29:47;95923.66;;;19.36;48.83
83551;BME280;74617;47.082;15.524;2024-03-02T05:32:12;95919.34;;;19.35;48.80
83551;BME280;74617;47.082;15.524;2024-03-02T05:34:37;95914.72;;;19.35;48.95
83551;BME280;74617;47.082;15.524;2024-03-02T05:37:03;95923.66;;;19.36;48.74
83551;BME280;74617;47.082;15.524;2024-03-02T05:39:28;95926.38;;;19.36;49.18
83551;BME280;74617;47.082;15.524;2024-03-02T05:41:53;95927.50;;;19.35;48.67
83551;BME280;74617;47.082;15.524;2024-03-02T05:44:19;95938.41;;;19.35;49.00
83551;BME280;74617;47.082;15.524;2024-03-02T05:46:45;95937.63;;;19.34;48.91
83551;BME280;74617;47.082;15.524;2024-03-02T05:49:10;95932.16;;;19.34;48.79
83551;BME280;74617;47.082;15.524;2024-03-02T05:51:36;95934.09;;;19.34;48.92
83551;BME280;74617;47.082;15.524;2024-03-02T05:54:01;95934.09;;;19.34;49.16
83551;BME280;74617;47.082;15.524;2024-03-02T05:56:26;95933.31;;;19.33;48.91
83551;BME280;74617;47.082;15.524;2024-03-02T05:58:52;95938.41;;;19.35;49.03
83551;BME280;74617;47.082;15.524;2024-03-02T06:01:36;95932.97;;;19.35;49.01
83551;BME280;74617;47.082;15.524;2024-03-02T06:04:02;95933.78;;;19.35;49.09
83551;BME280;74617;47.082;15.524;2024-03-02T06:06:27;95936.13;;;19.37;49.35
83551;BME280;74617;47.082;15.524;2024-03-02T06:08:52;95936.13;;;19.37;49.80
83551;BME280;74617;47.082;15.524;2024-03-02T06:11:21;95943.53;;;19.36;49.36
83551;BME280;74617;47.082;15.524;2024-03-02T06:13:46;95940.00;;;19.36;49.23
83551;BME280;74617;47.082;15.524;2024-03-02T06:16:12;95936.50;;;19.35;49.11
83551;BME280;74617;47.082;15.524;2024-03-02T06:18:37;95937.28;;;19.36;49.12
83551;BME280;74617;47.082;15.524;2024-03-02T06:21:03;95941.94;;;19.35;49.36
83551;BME280;74617;47.082;15.524;2024-03-02T06:23:28;95947.41;;;19.35;49.11
83551;BME280;74617;47.082;15.524;2024-03-02T06:25:54;95952.03;;;19.35;49.28
83551;BME280;74617;47.082;15.524;2024-03-02T06:28:19;95957.47;;;19.35;49.38
83551;BME280;74617;47.082;15.524;2024-03-02T06:30:45;95966.78;;;19.34;49.45
83551;BME280;74617;47.082;15.524;2024-03-02T06:33:11;95962.13;;;19.34;49.25
83551;BME280;74617;47.082;15.524;2024-03-02T06:35:36;95958.63;;;19.34;49.34
83551;BME280;74617;47.082;15.524;2024-03-02T06:38:02;95964.06;;;19.34;49.05
83551;BME280;74617;47.082;15.524;2024-03-02T06:40:27;95959.75;;;19.33;49.15
83551;BME280;74617;47.082;15.524;2024-03-02T06:42:53;95953.53;;;19.32;48.99
83551;BME280;74617;47.082;15.524;2024-03-02T06:45:19;95962.47;;;19.33;49.12
83551;BME280;74617;47.082;15.524;2024-03-02T06:47:44;95958.19;;;19.32;49.00
83551;BME280;74617;47.082;15.524;2024-03-02T06:50:09;95964.41;;;19.32;49.06
83551;BME280;74617;47.082;15.524;2024-03-02T06:52:35;95956.59;;;19.31;48.88
83551;BME280;74617;47.082;15.524;2024-03-02T06:55:01;95951.94;;;19.31;48.44
83551;BME280;74617;47.082;15.524;2024-03-02T06:57:26;95954.66;;;19.31;48.65
83551;BME280;74617;47.082;15.524;2024-03-02T06:59:52;95955.47;;;19.32;48.39
83551;BME280;74617;47.082;15.524;2024-03-02T07:02:20;95956.59;;;19.31;48.84
83551;BME280;74617;47.082;15.524;2024-03-02T07:04:46;95963.63;;;19.32;49.13
83551;BME280;74617;47.082;15.524;2024-03-02T07:07:12;95957.03;;;19.33;49.47
83551;BME280;74617;47.082;15.524;2024-03-02T07:09:37;95964.06;;;19.34;49.89
83551;BME280;74617;47.082;15.524;2024-03-02T07:12:03;95951.69;;;19.36;50.77
83551;BME280;74617;47.082;15.524;2024-03-02T07:14:28;95954.41;;;19.36;50.23
83551;BME280;74617;47.082;15.524;2024-03-02T07:17:30;95946.69;;;19.38;51.46
83551;BME280;74617;47.082;15.524;2024-03-02T07:19:56;95943.16;;;19.38;50.93
83551;BME280;74617;47.082;15.524;2024-03-02T07:22:21;95948.25;;;19.39;50.88
83551;BME280;74617;47.082;15.524;2024-03-02T07:24:46;95938.16;;;19.40;51.93
83551;BME280;74617;47.082;15.524;2024-03-02T07:27:12;95942.44;;;19.41;51.53
83551;BME280;74617;47.082;15.524;2024-03-02T07:29:39;95947.56;;;19.43;51.51
83551;BME280;74617;47.082;15.524;2024-03-02T07:32:05;95947.22;;;19.44;51.54
83551;BME280;74617;47.082;15.524;2024-03-02T07:34:31;95946.06;;;19.45;51.62
83551;BME280;74617;47.082;15.524;2024-03-02T07:36:57;95949.56;;;19.46;51.50
83551;BME280;74617;47.082;15.524;2024-03-02T07:39:22;95953.09;;;19.46;51.08
83551;BME280;74617;47.082;15.524;2024-03-02T07:41:48;95947.66;;;19.46;51.84
83551;BME280;74617;47.082;15.524;2024-03-02T07:44:14;95945.72;;;19.47;51.27
83551;BME280;74617;47.082;15.524;2024-03-02T07:46:43;95951.59;;;19.49;51.65
83551;BME280;74617;47.082;15.524;2024-03-02T07:49:09;95953.97;;;19.50;52.15
83551;BME280;74617;47.082;15.524;2024-03-02T07:51:34;95952.06;;;19.51;51.43
83551;BME280;74617;47.082;15.524;2024-03-02T07:54:00;95955.56;;;19.51;52.01
83551;BME280;74617;47.082;15.524;2024-03-02T07:56:25;95957.94;;;19.53;52.02
83551;BME280;74617;47.082;15.524;2024-03-02T07:58:51;95958.72;;;19.53;51.46
83551;BME280;74617;47.082;15.524;2024-03-02T08:01:16;95958.72;;;19.53;51.61
83551;BME280;74617;47.082;15.524;2024-03-02T08:03:43;95947.81;;;19.53;51.67
83551;BME280;74617;47.082;15.524;2024-03-02T08:06:08;95960.66;;;19.53;51.59
83551;BME280;74617;47.082;15.524;2024-03-02T08:08:33;95957.13;;;19.52;51.69
83551;BME280;74617;47.082;15.524;2024-03-02T08:10:59;95957.13;;;19.52;51.93
83551;BME280;74617;47.082;15.524;2024-03-02T08:13:24;95952.84;;;19.51;51.46
83551;BME280;74617;47.082;15.524;2024-03-02T08:15:49;95954.41;;;19.52;51.48
83551;BME280;74617;47.082;15.524;2024-03-02T08:18:15;95946.25;;;19.52;51.54
83551;BME280;74617;47.082;15.524;2024-03-02T08:20:40;95957.13;;;19.52;51.86
83551;BME280;74617;47.082;15.524;2024-03-02T08:23:06;95955.19;;;19.53;51.53
83551;BME280;74617;47.082;15.524;2024-03-02T08:25:32;95946.25;;;19.52;51.67
83551;BME280;74617;47.082;15.524;2024-03-02T08:27:57;95953.25;;;19.53;51.55
83551;BME280;74617;47.082;15.524;2024-03-02T08:30:23;95951.69;;;19.52;51.72
83551;BME280;74617;47.082;15.524;2024-03-02T08:32:48;95953.25;;;19.53;51.53
83551;BME280;74617;47.082;15.524;2024-03-02T08:35:14;95947.81;;;19.53;51.30
83551;BME280;74617;47.082;15.524;2024-03-02T08:37:41;95954.84;;;19.54;51.56
83551;BME280;74617;47.082;15.524;2024-03-02T08:40:07;95952.59;;;19.56;51.78
83551;BME280;74617;47.082;15.524;2024-03-02T08:42:33;95944.41;;;19.56;51.99
83551;BME280;74617;47.082;15.524;2024-03-02T08:45:00;95948.75;;;19.57;52.37
83551;BME280;74617;47.082;15.524;2024-03-02T08:47:26;95950.31;;;19.58;53.14
83551;BME280;74617;47.082;15.524;2024-03-02T08:49:52;95950.31;;;19.58;52.93
83551;BME280;74617;47.082;15.524;2024-03-02T08:52:18;95941.00;;;19.59;53.01
83551;BME280;74617;47.082;15.524;2024-03-02T08:54:43;95949.59;;;19.61;53.21
83551;BME280;74617;47.082;15.524;2024-03-02T08:57:09;95947.34;;;19.63;53.56
83551;BME280;74617;47.082;15.524;2024-03-02T08:59:34;95946.88;;;19.61;54.02
83551;BME280;74617;47.082;15.524;2024-03-02T09:01:59;95949.28;;;19.63;53.22
83551;BME280;74617;47.082;15.524;2024-03-02T09:04:25;95945.03;;;19.65;54.16
83551;BME280;74617;47.082;15.524;2024-03-02T09:06:50;95944.69;;;19.67;53.88
83551;BME280;74617;47.082;15.524;2024-03-02T09:09:16;95947.84;;;19.69;54.09
83551;BME280;74617;47.082;15.524;2024-03-02T09:11:41;95948.66;;;19.70;54.14
83551;BME280;74617;47.082;15.524;2024-03-02T09:14:07;95949.44;;;19.70;54.51
83551;BME280;74617;47.082;15.524;2024-03-02T09:16:32;95947.16;;;19.72;54.83
83551;BME280;74617;47.082;15.524;2024-03-02T09:18:58;95948.72;;;19.73;54.85
83551;BME280;74617;47.082;15.524;2024-03-02T09:21:23;95946.78;;;19.74;54.97
83551;BME280;74617;47.082;15.524;2024-03-02T09:23:50;95951.88;;;19.75;54.93
83551;BME280;74617;47.082;15.524;2024-03-02T09:26:16;95951.53;;;19.77;55.10
83551;BME280;74617;47.082;15.524;2024-03-02T09:28:45;95950.03;;;19.79;54.86
83551;BME280;74617;47.082;15.524;2024-03-02T09:31:10;95948.47;;;19.78;54.42
83551;BME280;74617;47.082;15.524;2024-03-02T09:33:36;95955.50;;;19.79;54.60
83551;BME280;74617;47.082;15.524;2024-03-02T09:36:02;95954.19;;;19.57;49.04
83551;BME280;74617;47.082;15.524;2024-03-02T09:38:27;95954.31;;;19.33;46.98
83551;BME280;74617;47.082;15.524;2024-03-02T09:40:53;95950.59;;;19.09;47.32
83551;BME280;74617;47.082;15.524;2024-03-02T09:43:18;95945.06;;;19.06;47.05
83551;BME280;74617;47.082;15.524;2024-03-02T09:45:44;95957.19;;;19.08;47.78
83551;BME280;74617;47.082;15.524;2024-03-02T09:48:10;95955.06;;;19.02;45.82
83551;BME280;74617;47.082;15.524;2024-03-02T09:50:35;95950.84;;;19.04;46.85
83551;BME280;74617;47.082;15.524;2024-03-02T09:53:01;95947.69;;;19.02;46.57
83551;BME280;74617;47.082;15.524;2024-03-02T09:55:27;95948.25;;;19.08;47.14
83551;BME280;74617;47.082;15.524;2024-03-02T09:57:53;95953.69;;;18.80;45.17
83551;BME280;74617;47.082;15.524;2024-03-02T10:00:18;95950.81;;;18.61;45.33
83551;BME280;74617;47.082;15.524;2024-03-02T10:02:44;95948.22;;;18.52;45.88
83551;BME280;74617;47.082;15.524;2024-03-02T10:05:09;95950.44;;;18.22;44.91
83551;BME280;74617;47.082;15.524;2024-03-02T10:07:35;95958.41;;;18.15;45.82
83551;BME280;74617;47.082;15.524;2024-03-02T10:10:12;95958.63;;;17.97;44.92
83551;BME280;74617;47.082;15.524;2024-03-02T10:12:38;95961.03;;;17.99;45.81
83551;BME280;74617;47.082;15.524;2024-03-02T10:15:04;95970.78;;;18.00;45.64
83551;BME280;74617;47.082;15.524;2024-03-02T10:17:31;95968.28;;;18.07;45.94
83551;BME280;74617;47.082;15.524;2024-03-02T10:19:56;95972.00;;;18.15;46.48
83551;BME280;74617;47.082;15.524;2024-03-02T10:22:23;95962.47;;;18.21;46.82
83551;BME280;74617;47.082;15.524;2024-03-02T10:24:49;95963.59;;;18.20;46.32
83551;BME280;74617;47.082;15.524;2024-03-02T10:27:26;95957.97;;;18.13;45.24
83551;BME280;74617;47.082;15.524;2024-03-02T10:29:52;95961.34;;;18.10;45.77
83551;BME280;74617;47.082;15.524;2024-03-02T10:32:17;95961.13;;;18.15;46.14
83551;BME280;74617;47.082;15.524;2024-03-02T10:34:45;95954.44;;;18.12;45.52
83551;BME280;74617;47.082;15.524;2024-03-02T10:37:11;95946.09;;;18.05;45.22
83551;BME280;74617;47.082;15.524;2024-03-02T10:39:37;95946.75;;;18.02;45.31
83551;BME280;74617;47.082;15.524;2024-03-02T10:42:06;95944.03;;;18.02;45.62
83551;BME280;74617;47.082;15.524;2024-03-02T10:44:32;95942.44;;;18.01;44.66
83551;BME280;74617;47.082;15.524;2024-03-02T10:47:03;95937.38;;;17.99;45.37
83551;BME280;74617;47.082;15.524;2024-03-02T10:49:30;95935.88;;;18.02;45.07
83551;BME280;74617;47.082;15.524;2024-03-02T10:51:59;95938.16;;;18.00;45.12
83551;BME280;74617;47.082;15.524;2024-03-02T10:54:25;95933.28;;;18.06;45.96
83551;BME280;74617;47.082;15.524;2024-03-02T10:57:00;95930.66;;;18.09;46.06
83551;BME280;74617;47.082;15.524;2024-03-02T10:59:34;95931.09;;;18.11;46.10
83551;BME280;74617;47.082;15.524;2024-03-02T11:02:01;95927.72;;;18.14;46.29
83551;BME280;74617;47.082;15.524;2024-03-02T11:04:29;95924.63;;;18.16;45.97
83551;BME280;74617;47.082;15.524;2024-03-02T11:07:04;95914.91;;;18.15;45.75
83551;BME280;74617;47.082;15.524;2024-03-02T11:09:29;95916.13;;;18.17;46.23
83551;BME280;74617;47.082;15.524;2024-03-02T11:12:16;95910.38;;;18.19;46.22
83551;BME280;74617;47.082;15.524;2024-03-02T11:14:44;95919.31;;;18.19;46.37
83551;BME280;74617;47.082;15.524;2024-03-02T11:17:10;95913.53;;;18.21;46.24
83551;BME280;74617;47.082;15.524;2024-03-02T11:19:38;95906.16;;;18.21;46.51
83551;BME280;74617;47.082;15.524;2024-03-02T11:22:04;95911.59;;;18.21;46.33
83551;BME280;74617;47.082;15.524;2024-03-02T11:24:31;95894.94;;;18.23;46.69
83551;BME280;74617;47.082;15.524;2024-03-02T11:27:00;95904.78;;;18.27;47.18
83551;BME280;74617;47.082;15.524;2024-03-02T11:32:14;95899.22;;;18.24;45.38
83551;BME280;74617;47.082;15.524;2024-03-02T11:34:41;95892.66;;;18.25;46.13
83551;BME280;74617;47.082;15.524;2024-03-02T11:37:11;95892.22;;;18.23;46.14
83551;BME280;74617;47.082;15.524;2024-03-02T11:39:38;95897.09;;;18.17;45.46
83551;BME280;74617;47.082;15.524;2024-03-02T11:42:06;95888.16;;;18.17;45.32
83551;BME280;74617;47.082;15.524;2024-03-02T11:44:35;95887.47;;;18.20;45.96
83551;BME280;74617;47.082;15.524;2024-03-02T11:47:02;95889.63;;;18.26;46.45
83551;BME280;74617;47.082;15.524;2024-03-02T11:49:59;95887.78;;;18.30;47.00
83551;BME280;74617;47.082;15.524;2024-03-02T11:52:24;95875.88;;;18.35;47.13
83551;BME280;74617;47.082;15.524;2024-03-02T11:54:51;95872.44;;;18.38;46.85
83551;BME280;74617;47.082;15.524;2024-03-02T11:57:19;95870.19;;;18.40;47.19
83551;BME280;74617;47.082;15.524;2024-03-02T11:59:45;95862.91;;;18.44;47.17
83551;BME280;74617;47.082;15.524;2024-03-02T12:02:16;95868.81;;;18.46;47.11
83551;BME280;74617;47.082;15.524;2024-03-02T12:04:42;95861.88;;;18.49;47.05
83551;BME280;74617;47.082;15.524;2024-03-02T12:07:08;95860.38;;;18.51;47.31
83551;BME280;74617;47.082;15.524;2024-03-02T12:09:34;95867.06;;;18.54;47.15
83551;BME280;74617;47.082;15.524;2024-03-02T12:12:10;95863.63;;;18.57;47.21
83551;BME280;74617;47.082;15.524;2024-03-02T12:14:37;95862.13;;;18.59;47.05
83551;BME280;74617;47.082;15.524;2024-03-02T12:17:04;95852.50;;;18.62;47.20
83551;BME280;74617;47.082;15.524;2024-03-02T12:19:30;95854.53;;;18.65;47.05
83551;BME280;74617;47.082;15.524;2024-03-02T12:21:57;95854.22;;;18.67;47.19
83551;BME280;74617;47.082;15.524;2024-03-02T12:24:23;95851.16;;;18.68;46.93
83551;BME280;74617;47.082;15.524;2024-03-02T12:26:51;95850.78;;;18.70;47.26
83551;BME280;74617;47.082;15.524;2024-03-02T12:29:19;95855.09;;;18.71;47.01
83551;BME280;74617;47.082;15.524;2024-03-02T12:31:45;95847.38;;;18.73;47.61
83551;BME280;74617;47.082;15.524;2024-03-02T12:34:16;95848.97;;;18.74;47.48
83551;BME280;74617;47.082;15.524;2024-03-02T12:36:42;95847.81;;;18.75;47.47
83551;BME280;74617;47.082;15.524;2024-03-02T12:39:08;95844.75;;;18.76;47.41
83551;BME280;74617;47.082;15.524;2024-03-02T12:41:38;95843.59;;;18.77;47.37
83551;BME280;74617;47.082;15.524;2024-03-02T12:44:04;95842.56;;;18.82;47.51
83551;BME280;74617;47.082;15.524;2024-03-02T12:46:30;95844.56;;;18.85;47.54
83551;BME280;74617;47.082;15.524;2024-03-02T12:48:56;95843.88;;;18.88;47.61
83551;BME280;74617;47.082;15.524;2024-03-02T12:51:21;95841.97;;;18.89;47.55